createdAt,value
2019-06-07T00:02:08.201Z,4.27
2019-06-07T00:04:43.284Z,5.00
2019-06-07T00:07:21.749Z,5.10
2019-06-07T00:09:51.783Z,5.07
2019-06-07T00:12:23.849Z,4.50
2019-06-07T00:14:55.895Z,5.30
2019-06-07T00:17:30.505Z,4.50
2019-06-07T00:20:04.150Z,4.63
2019-06-07T00:22:35.811Z,4.63
2019-06-07T00:25:12.068Z,4.37
2019-06-07T00:27:43.929Z,4.47
2019-06-07T00:30:50.784Z,3.77
2019-06-07T00:33:21.097Z,3.90
2019-06-07T00:35:53.244Z,4.70
2019-06-07T00:38:26.097Z,3.83
2019-06-07T00:41:00.920Z,4.20
2019-06-07T00:43:33.295Z,3.73
2019-06-07T00:46:18.135Z,3.30
2019-06-07T00:48:51.847Z,3.20
2019-06-07T00:51:26.854Z,4.30
2019-06-07T00:53:58.996Z,3.40
2019-06-07T00:56:31.065Z,3.90
2019-06-07T00:59:11.211Z,3.87
2019-06-07T01:01:44.254Z,3.03
2019-06-07T01:04:21.270Z,3.60
2019-06-07T01:06:55.923Z,3.60
2019-06-07T01:09:30.261Z,4.07
2019-06-07T01:12:02.276Z,4.03
2019-06-07T01:14:34.271Z,4.07
2019-06-07T01:17:40.086Z,4.70
2019-06-07T01:20:02.373Z,4.50
2019-06-07T01:22:37.840Z,4.07
2019-06-07T01:25:10.439Z,3.90
2019-06-07T01:27:41.645Z,4.60
2019-06-07T01:30:35.921Z,4.43
2019-06-07T01:33:10.998Z,4.20
2019-06-07T01:35:45.290Z,3.73
2019-06-07T01:38:21.985Z,4.03
2019-06-07T01:40:56.104Z,4.30
2019-06-07T01:43:30.859Z,4.67
2019-06-07T01:46:01.334Z,3.63
2019-06-07T01:48:48.981Z,3.90
2019-06-07T01:51:12.084Z,3.63
2019-06-07T01:53:45.260Z,3.30
2019-06-07T01:56:22.555Z,3.70
2019-06-07T01:58:56.259Z,3.40
2019-06-07T02:01:35.070Z,3.77
2019-06-07T02:04:06.316Z,4.40
2019-06-07T02:06:41.333Z,3.83
2019-06-07T02:09:16.635Z,4.30
2019-06-07T02:11:51.370Z,3.60
2019-06-07T02:14:27.374Z,3.70
2019-06-07T02:17:01.389Z,4.53
2019-06-07T02:19:34.667Z,4.37
2019-06-07T02:22:07.560Z,3.73
2019-06-07T02:24:40.455Z,4.10
2019-06-07T02:27:14.424Z,4.47
2019-06-07T02:29:47.080Z,4.10
2019-06-07T02:32:18.816Z,4.23
2019-06-07T02:34:52.259Z,4.20
2019-06-07T02:37:31.582Z,4.17
2019-06-07T02:40:01.918Z,4.50
2019-06-07T02:42:41.866Z,5.03
2019-06-07T02:45:11.065Z,4.60
2019-06-07T02:48:01.815Z,4.50
2019-06-07T02:50:39.026Z,4.73
2019-06-07T02:53:11.543Z,4.27
2019-06-07T02:56:33.201Z,4.60
2019-06-07T02:58:17.887Z,4.83
2019-06-07T03:01:06.478Z,4.57
2019-06-07T03:03:32.615Z,4.23
2019-06-07T03:06:14.554Z,4.17
2019-06-07T03:08:47.658Z,4.10
2019-06-07T03:11:24.354Z,4.10
2019-06-07T03:13:57.323Z,4.53
2019-06-07T03:16:37.359Z,4.30
2019-06-07T03:19:18.397Z,4.97
2019-06-07T03:21:50.409Z,5.13
2019-06-07T03:24:29.599Z,4.43
2019-06-07T03:29:40.982Z,4.10
2019-06-07T03:32:11.888Z,4.50
2019-06-07T03:34:44.846Z,4.23
2019-06-07T03:37:16.063Z,4.17
2019-06-07T03:39:49.745Z,4.13
2019-06-07T03:42:21.978Z,4.97
2019-06-07T03:44:55.006Z,4.50
2019-06-07T03:47:32.378Z,4.37
2019-06-07T03:50:05.679Z,4.10
2019-06-07T03:52:41.630Z,4.50
2019-06-07T03:55:40.418Z,4.83
2019-06-07T04:00:51.262Z,4.30
2019-06-07T04:03:33.387Z,4.30
2019-06-07T04:06:01.128Z,4.77
2019-06-07T04:08:41.382Z,4.60
2019-06-07T04:11:14.149Z,3.93
2019-06-07T04:13:46.075Z,3.77
2019-06-07T04:16:18.182Z,3.97
2019-06-07T04:18:51.101Z,4.30
2019-06-07T04:21:24.081Z,4.43
2019-06-07T04:23:56.954Z,3.97
2019-06-07T04:26:31.387Z,4.80
2019-06-07T04:29:32.364Z,4.40
2019-06-07T04:31:43.129Z,4.30
2019-06-07T04:34:16.889Z,3.80
2019-06-07T04:36:59.147Z,3.90
2019-06-07T04:39:26.467Z,3.70
2019-06-07T04:42:01.135Z,4.23
2019-06-07T04:44:39.354Z,4.23
2019-06-07T04:47:15.809Z,4.73
2019-06-07T04:49:49.747Z,4.50
2019-06-07T04:52:23.426Z,4.90
2019-06-07T04:54:56.996Z,4.77
2019-06-07T04:57:34.845Z,4.03
2019-06-07T05:02:51.943Z,4.67
2019-06-07T05:05:27.052Z,4.83
2019-06-07T05:07:58.257Z,4.60
2019-06-07T05:10:35.086Z,4.90
2019-06-07T05:13:08.517Z,4.50
2019-06-07T05:15:42.354Z,4.17
2019-06-07T05:18:14.184Z,4.60
2019-06-07T05:20:46.975Z,4.20
2019-06-07T05:24:00.137Z,4.30
2019-06-07T05:26:04.726Z,4.97
2019-06-07T05:28:42.316Z,4.30
2019-06-07T05:31:11.743Z,4.70
2019-06-07T05:33:44.430Z,4.10
2019-06-07T05:36:16.376Z,4.70
2019-06-07T05:38:48.411Z,4.67
2019-06-07T05:41:21.713Z,4.67
2019-06-07T05:44:12.141Z,4.00
2019-06-07T05:46:33.819Z,4.87
2019-06-07T05:49:06.471Z,4.23
2019-06-07T05:51:41.915Z,4.60
2019-06-07T05:54:14.840Z,4.23
2019-06-07T05:56:47.498Z,4.47
2019-06-07T05:59:23.285Z,4.60
2019-06-07T06:02:03.192Z,4.77
2019-06-07T06:04:29.789Z,4.50
2019-06-07T06:07:03.849Z,3.77
2019-06-07T06:09:36.452Z,4.00
2019-06-07T06:12:11.459Z,3.90
2019-06-07T06:14:46.891Z,4.43
2019-06-07T06:17:18.610Z,4.90
2019-06-07T06:19:53.586Z,4.70
2019-06-07T06:22:28.170Z,4.70
2019-06-07T06:25:30.751Z,4.60
2019-06-07T06:28:10.093Z,5.03
2019-06-07T06:30:25.221Z,4.30
2019-06-07T06:32:58.753Z,4.70
2019-06-07T06:35:33.042Z,4.47
2019-06-07T06:38:05.927Z,4.47
2019-06-07T06:40:44.307Z,4.30
2019-06-07T06:43:16.152Z,4.60
2019-06-07T06:45:55.813Z,5.40
2019-06-07T06:48:29.405Z,4.70
2019-06-07T06:51:00.949Z,4.40
2019-06-07T06:53:34.900Z,4.43
2019-06-07T06:56:10.397Z,4.73
2019-06-07T06:59:33.972Z,4.50
2019-06-07T07:01:20.523Z,5.23
2019-06-07T07:04:10.559Z,5.17
2019-06-07T07:06:29.782Z,5.50
2019-06-07T07:09:05.783Z,4.70
2019-06-07T07:11:56.310Z,5.00
2019-06-07T07:14:15.528Z,6.50
2019-06-07T07:16:53.632Z,5.37
2019-06-07T07:19:21.905Z,5.07
2019-06-07T07:21:55.602Z,4.80
2019-06-07T07:24:29.052Z,5.00
2019-06-07T07:27:02.082Z,4.40
2019-06-07T07:29:33.720Z,5.40
2019-06-07T07:32:06.250Z,5.00
2019-06-07T07:34:38.102Z,5.30
2019-06-07T07:37:12.163Z,5.80
2019-06-07T07:39:48.113Z,4.57
2019-06-07T07:42:21.501Z,4.80
2019-06-07T07:44:55.121Z,4.63
2019-06-07T07:47:27.403Z,5.20
2019-06-07T07:50:01.861Z,5.17
2019-06-07T07:52:40.205Z,5.33
2019-06-07T07:55:16.641Z,4.87
2019-06-07T07:57:58.124Z,5.30
2019-06-07T08:00:50.216Z,4.77
2019-06-07T08:03:04.579Z,5.07
2019-06-07T08:05:42.849Z,5.70
2019-06-07T08:08:11.418Z,5.87
2019-06-07T08:10:44.375Z,4.80
2019-06-07T08:13:26.949Z,5.30
2019-06-07T08:15:54.408Z,8.47
2019-06-07T08:18:26.699Z,6.47
2019-06-07T08:21:21.560Z,5.97
2019-06-07T08:23:36.221Z,5.40
2019-06-07T08:26:10.307Z,5.67
2019-06-07T08:28:44.229Z,5.60
2019-06-07T08:31:16.914Z,6.10
2019-06-07T08:33:50.197Z,4.90
2019-06-07T08:36:40.847Z,6.17
2019-06-07T08:39:05.683Z,5.80
2019-06-07T08:41:32.525Z,5.20
2019-06-07T08:44:22.669Z,5.67
2019-06-07T08:46:41.591Z,6.30
2019-06-07T08:49:15.558Z,5.93
2019-06-07T08:51:47.575Z,5.70
2019-06-07T08:54:23.001Z,7.13
2019-06-07T08:57:06.555Z,5.33
2019-06-07T08:59:28.490Z,7.00
2019-06-07T09:02:19.985Z,6.70
2019-06-07T09:04:37.881Z,6.77
2019-06-07T09:07:19.212Z,6.63
2019-06-07T09:09:43.719Z,7.03
2019-06-07T09:12:17.607Z,6.27
2019-06-07T09:15:07.317Z,6.57
2019-06-07T09:17:24.930Z,6.50
2019-06-07T09:19:59.033Z,6.70
2019-06-07T09:22:31.667Z,6.47
2019-06-07T09:25:20.069Z,5.80
2019-06-07T09:27:41.970Z,7.13
2019-06-07T09:30:39.457Z,6.97
2019-06-07T09:33:11.454Z,7.10
2019-06-07T09:35:46.041Z,7.17
2019-06-07T09:38:25.676Z,5.60
2019-06-07T09:40:53.630Z,7.10
2019-06-07T09:46:04.028Z,7.27
2019-06-07T09:49:09.713Z,7.63
2019-06-07T09:51:19.109Z,7.27
2019-06-07T09:53:43.787Z,7.97
2019-06-07T09:56:17.759Z,6.60
2019-06-07T09:58:53.964Z,7.60
2019-06-07T10:01:27.077Z,7.10
2019-06-07T10:04:04.677Z,7.40
2019-06-07T10:06:34.934Z,7.60
2019-06-07T10:11:43.706Z,8.43
2019-06-07T10:14:17.746Z,9.13
2019-06-07T10:16:51.154Z,18.97
2019-06-07T10:19:26.616Z,9.67
2019-06-07T10:21:59.168Z,9.13
2019-06-07T10:24:30.980Z,10.03
2019-06-07T10:27:04.038Z,8.40
2019-06-07T10:29:36.954Z,9.90
2019-06-07T10:32:09.237Z,8.27
2019-06-07T10:34:43.237Z,7.23
2019-06-07T10:37:16.091Z,9.30
2019-06-07T10:39:49.395Z,7.43
2019-06-07T10:42:21.006Z,6.70
2019-06-07T10:44:56.721Z,9.43
2019-06-07T10:47:29.130Z,9.00
2019-06-07T10:50:02.275Z,9.93
2019-06-07T10:52:45.336Z,9.63
2019-06-07T10:55:20.650Z,9.10
2019-06-07T10:57:53.728Z,10.37
2019-06-07T11:00:27.291Z,12.20
2019-06-07T11:02:59.051Z,10.50
2019-06-07T11:05:33.981Z,8.30
2019-06-07T11:08:06.222Z,9.50
2019-06-07T11:10:39.697Z,10.37
2019-06-07T11:13:12.507Z,9.60
2019-06-07T11:15:45.376Z,12.30
2019-06-07T11:18:18.918Z,10.43
2019-06-07T11:20:52.575Z,11.33
2019-06-07T11:23:26.311Z,9.50
2019-06-07T11:25:59.493Z,9.50
2019-06-07T11:28:32.169Z,10.33
2019-06-07T11:31:08.432Z,8.63
2019-06-07T11:33:41.217Z,7.33
2019-06-07T11:36:15.501Z,9.93
2019-06-07T11:38:49.165Z,8.73
2019-06-07T11:41:24.036Z,9.63
2019-06-07T11:43:59.806Z,8.80
2019-06-07T11:46:32.720Z,8.97
2019-06-07T11:49:08.235Z,7.67
2019-06-07T11:51:41.798Z,7.10
2019-06-07T11:54:14.074Z,8.60
2019-06-07T11:56:48.222Z,9.23
2019-06-07T11:59:21.418Z,8.40
2019-06-07T12:01:54.414Z,8.40
2019-06-07T12:04:34.479Z,8.20
2019-06-07T12:07:03.719Z,7.43
2019-06-07T12:09:37.737Z,10.00
2019-06-07T12:12:10.267Z,7.43
2019-06-07T12:14:44.409Z,7.60
2019-06-07T12:17:17.640Z,8.50
2019-06-07T12:19:50.468Z,10.37
2019-06-07T12:22:23.474Z,8.97
2019-06-07T12:24:57.561Z,9.47
2019-06-07T12:27:30.595Z,9.73
2019-06-07T12:30:27.690Z,8.00
2019-06-07T12:32:56.735Z,9.13
2019-06-07T12:35:32.581Z,8.80
2019-06-07T12:38:05.713Z,8.00
2019-06-07T12:40:39.376Z,8.37
2019-06-07T12:43:12.395Z,8.60
2019-06-07T12:45:46.158Z,8.20
2019-06-07T12:48:23.756Z,8.13
2019-06-07T12:50:53.729Z,7.83
2019-06-07T12:53:29.177Z,8.20
2019-06-07T12:56:03.476Z,9.53
2019-06-07T12:58:39.447Z,10.63
2019-06-07T13:01:11.499Z,8.60
2019-06-07T13:03:47.430Z,9.47
2019-06-07T13:06:23.708Z,8.20
2019-06-07T13:08:56.999Z,8.50
2019-06-07T13:11:31.786Z,7.27
2019-06-07T13:14:03.866Z,8.30
2019-06-07T13:16:35.826Z,7.70
2019-06-07T13:19:08.867Z,7.40
2019-06-07T13:21:40.922Z,6.43
2019-06-07T13:24:16.228Z,5.97
2019-06-07T13:26:47.932Z,7.03
2019-06-07T13:29:21.091Z,6.20
2019-06-07T13:31:56.578Z,6.80
2019-06-07T13:34:29.071Z,7.10
2019-06-07T13:37:01.942Z,7.27
2019-06-07T13:39:33.525Z,6.77
2019-06-07T13:42:06.440Z,6.63
2019-06-07T13:44:39.960Z,6.20
2019-06-07T13:47:14.114Z,7.10
2019-06-07T13:49:48.007Z,7.30
2019-06-07T13:52:21.739Z,10.23
2019-06-07T13:54:54.034Z,6.80
2019-06-07T13:57:28.178Z,6.27
2019-06-07T14:00:00.063Z,6.37
2019-06-07T14:02:42.665Z,6.47
2019-06-07T14:05:18.996Z,6.40
2019-06-07T14:07:52.871Z,5.90
2019-06-07T14:10:31.873Z,6.50
2019-06-07T14:13:06.423Z,6.10
2019-06-07T14:15:38.952Z,5.83
2019-06-07T14:18:13.987Z,6.33
2019-06-07T14:20:48.214Z,7.53
2019-06-07T14:23:40.135Z,6.90
2019-06-07T14:25:57.979Z,6.07
2019-06-07T14:28:33.724Z,6.10
2019-06-07T14:31:06.952Z,6.30
2019-06-07T14:33:39.992Z,6.67
2019-06-07T14:36:15.911Z,5.50
2019-06-07T14:38:47.345Z,6.30
2019-06-07T14:41:19.133Z,5.20
2019-06-07T14:43:51.209Z,5.10
2019-06-07T14:46:28.188Z,4.27
2019-06-07T14:49:00.234Z,5.50
2019-06-07T14:51:33.846Z,5.27
2019-06-07T14:54:11.377Z,4.27
2019-06-07T14:56:43.206Z,4.77
2019-06-07T14:59:18.159Z,4.03
2019-06-07T15:01:52.475Z,5.63
2019-06-07T15:04:28.582Z,4.20
2019-06-07T15:07:03.550Z,4.23
2019-06-07T15:09:37.133Z,4.80
2019-06-07T15:12:24.671Z,4.30
2019-06-07T15:14:47.087Z,4.70
2019-06-07T15:17:19.567Z,4.70
2019-06-07T15:19:53.663Z,4.40
2019-06-07T15:22:26.301Z,4.50
2019-06-07T15:25:02.404Z,4.90
2019-06-07T15:27:45.859Z,5.23
2019-06-07T15:30:18.467Z,4.87
2019-06-07T15:32:50.465Z,5.67
2019-06-07T15:35:23.751Z,4.60
2019-06-07T15:37:57.369Z,4.70
2019-06-07T15:40:30.906Z,5.60
2019-06-07T15:43:02.483Z,5.27
2019-06-07T15:45:35.619Z,5.60
2019-06-07T15:48:09.493Z,5.30
2019-06-07T15:50:42.700Z,4.70
2019-06-07T15:53:17.238Z,5.30
2019-06-07T15:55:49.440Z,5.33
2019-06-07T15:58:24.214Z,5.30
2019-06-07T16:00:59.304Z,5.60
2019-06-07T16:03:31.591Z,5.73
2019-06-07T16:06:05.900Z,6.00
2019-06-07T16:08:38.641Z,5.97
2019-06-07T16:11:14.204Z,5.27
2019-06-07T16:13:46.640Z,5.73
2019-06-07T16:16:20.415Z,5.50
2019-06-07T16:18:51.732Z,5.00
2019-06-07T16:21:27.403Z,5.40
2019-06-07T16:24:02.559Z,6.50
2019-06-07T16:26:36.077Z,5.90
2019-06-07T16:29:10.066Z,6.10
2019-06-07T16:31:45.061Z,5.87
2019-06-07T16:34:17.790Z,5.57
2019-06-07T16:36:49.986Z,5.70
2019-06-07T16:39:24.572Z,5.87
2019-06-07T16:41:56.832Z,5.47
2019-06-07T16:44:28.063Z,6.50
2019-06-07T16:47:03.481Z,5.90
2019-06-07T16:49:38.678Z,5.60
2019-06-07T16:52:14.550Z,5.63
2019-06-07T16:54:47.950Z,5.30
2019-06-07T16:57:20.955Z,6.73
2019-06-07T16:59:53.011Z,5.63
2019-06-07T17:02:25.120Z,6.50
2019-06-07T17:04:57.813Z,7.10
2019-06-07T17:07:42.289Z,6.80
2019-06-07T17:10:20.444Z,6.07
2019-06-07T17:12:51.904Z,7.00
2019-06-07T17:15:25.992Z,7.00
2019-06-07T17:17:58.025Z,6.07
2019-06-07T17:20:33.867Z,7.20
2019-06-07T17:23:09.396Z,7.40
2019-06-07T17:25:43.951Z,7.07
2019-06-07T17:28:17.785Z,7.90
2019-06-07T17:30:51.989Z,9.60
2019-06-07T17:33:24.304Z,7.97
2019-06-07T17:35:59.798Z,6.73
2019-06-07T17:38:34.043Z,6.47
2019-06-07T17:41:08.276Z,8.17
2019-06-07T17:43:54.777Z,9.07
2019-06-07T17:46:16.363Z,7.00
2019-06-07T17:48:47.732Z,8.20
2019-06-07T17:51:19.648Z,8.60
2019-06-07T17:53:55.016Z,6.40
2019-06-07T17:56:26.250Z,7.10
2019-06-07T17:58:57.890Z,7.73
2019-06-07T18:01:41.183Z,6.97
2019-06-07T18:04:06.891Z,6.83
2019-06-07T18:06:40.173Z,7.07
2019-06-07T18:09:16.826Z,8.43
2019-06-07T18:11:49.984Z,7.63
2019-06-07T18:14:25.513Z,7.93
2019-06-07T18:16:58.255Z,7.97
2019-06-07T18:19:29.546Z,7.23
2019-06-07T18:22:01.486Z,8.40
2019-06-07T18:24:36.270Z,7.03
2019-06-07T18:27:08.673Z,8.27
2019-06-07T18:29:40.456Z,7.40
2019-06-07T18:32:13.788Z,7.57
2019-06-07T18:34:46.697Z,7.73
2019-06-07T18:37:18.509Z,7.47
2019-06-07T18:39:51.112Z,7.83
2019-06-07T18:42:23.537Z,6.70
2019-06-07T18:44:56.520Z,7.37
2019-06-07T18:47:30.452Z,7.90
2019-06-07T18:50:18.602Z,8.77
2019-06-07T18:52:52.672Z,8.10
2019-06-07T18:55:28.203Z,7.23
2019-06-07T18:57:59.662Z,9.10
2019-06-07T19:00:34.667Z,7.70
2019-06-07T19:03:08.817Z,8.47
2019-06-07T19:05:41.902Z,8.47
2019-06-07T19:08:15.549Z,8.10
2019-06-07T19:10:48.968Z,7.90
2019-06-07T19:13:23.534Z,7.53
2019-06-07T19:15:57.474Z,8.50
2019-06-07T19:18:30.542Z,8.33
2019-06-07T19:21:02.636Z,7.90
2019-06-07T19:23:37.527Z,8.63
2019-06-07T19:26:11.666Z,10.00
2019-06-07T19:28:45.731Z,22.50
2019-06-07T19:31:19.840Z,9.93
2019-06-07T19:33:53.043Z,8.43
2019-06-07T19:36:24.835Z,8.83
2019-06-07T19:38:57.847Z,8.40
2019-06-07T19:41:30.849Z,7.40
2019-06-07T19:44:05.414Z,7.40
2019-06-07T19:46:38.719Z,8.50
2019-06-07T19:49:10.743Z,9.47
2019-06-07T19:51:42.781Z,11.20
2019-06-07T19:54:14.871Z,11.03
2019-06-07T19:56:49.128Z,9.30
2019-06-07T19:59:21.765Z,9.00
2019-06-07T20:01:55.750Z,9.57
2019-06-07T20:04:30.588Z,10.23
2019-06-07T20:07:05.214Z,10.03
2019-06-07T20:09:36.925Z,8.73
2019-06-07T20:12:12.403Z,8.57
2019-06-07T20:14:44.880Z,9.20
2019-06-07T20:17:17.909Z,9.27
2019-06-07T20:19:54.129Z,10.00
2019-06-07T20:22:26.003Z,8.07
2019-06-07T20:24:58.848Z,11.60
2019-06-07T20:27:34.821Z,10.97
2019-06-07T20:30:16.909Z,11.53
2019-06-07T20:32:48.929Z,11.07
2019-06-07T20:35:27.377Z,9.23
2019-06-07T20:38:06.983Z,8.87
2019-06-07T20:40:39.044Z,9.57
2019-06-07T20:43:12.082Z,9.77
2019-06-07T20:45:45.157Z,8.57
2019-06-07T20:48:25.480Z,9.87
2019-06-07T20:50:59.269Z,8.80
2019-06-07T20:53:32.220Z,9.17
2019-06-07T20:56:09.190Z,9.87
2019-06-07T20:58:42.248Z,11.50
2019-06-07T21:01:16.901Z,12.87
2019-06-07T21:03:55.222Z,10.03
2019-06-07T21:06:27.061Z,9.33
2019-06-07T21:09:08.015Z,10.23
2019-06-07T21:11:53.611Z,9.87
2019-06-07T21:14:36.521Z,10.33
2019-06-07T21:17:11.485Z,10.87
2019-06-07T21:19:42.762Z,10.33
2019-06-07T21:22:15.657Z,9.50
2019-06-07T21:24:49.272Z,9.47
2019-06-07T21:27:23.184Z,10.93
2019-06-07T21:29:55.252Z,13.10
2019-06-07T21:32:30.723Z,11.17
2019-06-07T21:35:21.315Z,10.03
2019-06-07T21:37:55.127Z,9.70
2019-06-07T21:40:30.445Z,9.27
2019-06-07T21:43:04.345Z,9.83
2019-06-07T21:45:38.350Z,10.70
2019-06-07T21:48:14.188Z,10.47
2019-06-07T21:50:49.519Z,11.03
2019-06-07T21:53:25.025Z,10.07
2019-06-07T21:55:57.503Z,9.23
2019-06-07T21:58:31.340Z,10.77
2019-06-07T22:01:24.439Z,10.60
2019-06-07T22:03:57.618Z,10.17
2019-06-07T22:06:33.822Z,10.27
2019-06-07T22:09:09.742Z,10.60
2019-06-07T22:11:52.003Z,11.00
2019-06-07T22:14:39.100Z,11.30
2019-06-07T22:17:21.687Z,11.50
2019-06-07T22:19:55.783Z,10.43
2019-06-07T22:22:29.635Z,9.20
2019-06-07T22:25:15.145Z,9.30
2019-06-07T22:27:48.065Z,11.10
2019-06-07T22:30:20.149Z,11.93
2019-06-07T22:32:52.759Z,10.60
2019-06-07T22:35:25.639Z,12.33
2019-06-07T22:37:58.663Z,11.30
2019-06-07T22:40:31.698Z,15.70
2019-06-07T22:43:07.648Z,15.10
2019-06-07T22:45:40.748Z,12.93
2019-06-07T22:48:13.419Z,10.73
2019-06-07T22:50:45.778Z,11.90
2019-06-07T22:53:18.690Z,12.97
2019-06-07T22:55:58.341Z,12.50
2019-06-07T22:58:31.728Z,11.27
2019-06-07T23:01:04.675Z,12.23
2019-06-07T23:03:37.712Z,12.03
2019-06-07T23:06:11.095Z,11.70
2019-06-07T23:08:44.705Z,11.57
2019-06-07T23:11:17.761Z,10.90
2019-06-07T23:13:50.622Z,11.47
2019-06-07T23:16:21.850Z,11.37
2019-06-07T23:18:53.633Z,10.03
2019-06-07T23:21:27.721Z,11.00
2019-06-07T23:24:01.819Z,10.97
2019-06-07T23:26:34.908Z,10.30
2019-06-07T23:29:07.884Z,27.77
2019-06-07T23:31:43.374Z,39.90
2019-06-07T23:34:16.930Z,11.70
2019-06-07T23:36:50.826Z,11.43
2019-06-07T23:39:23.209Z,11.73
2019-06-07T23:41:54.954Z,10.93
2019-06-07T23:44:27.952Z,9.93
2019-06-07T23:47:10.704Z,9.73
2019-06-07T23:49:35.980Z,9.30
2019-06-07T23:52:09.068Z,9.80
2019-06-07T23:54:40.276Z,10.60
2019-06-07T23:57:12.134Z,10.83
2019-06-07T23:59:44.028Z,10.00
